Time,TemperatureF,DewpointF,PressureIn,WindDirection,WindDirectionDegrees,WindSpeedMPH,WindSpeedGustMPH,Humidity,HourlyPrecipIn,Conditions,Clouds,dailyrainin,SoftwareType,DateUTC
2013-10-03 00:00:00,53.2,38.8,29.90,SE,135,0.0,-999.0,58,-99.99,,,0.00,Acu-Link.com,2013-10-03 04:00:00,
2013-10-03 00:16:00,52.5,38.6,29.90,NE,45,1.7,-999.0,59,-99.99,,,0.00,Acu-Link.com,2013-10-03 04:16:00,
2013-10-03 00:31:00,52.9,38.1,29.90,SSW,202,1.7,-999.0,57,-99.99,,,0.00,Acu-Link.com,2013-10-03 04:31:00,
2013-10-03 00:46:00,52.9,38.1,29.90,WSW,247,0.0,-999.0,57,-99.99,,,0.00,Acu-Link.com,2013-10-03 04:46:00,
2013-10-03 01:01:00,52.3,38.0,29.90,SW,225,0.0,-999.0,58,-99.99,,,0.00,Acu-Link.com,2013-10-03 05:01:00,
2013-10-03 01:18:00,51.6,38.2,29.92,West,270,0.0,-999.0,60,-99.99,,,0.00,Acu-Link.com,2013-10-03 05:18:00,
2013-10-03 01:33:00,51.3,38.3,29.92,NNW,337,1.1,-999.0,61,-99.99,,,0.00,Acu-Link.com,2013-10-03 05:33:00,
2013-10-03 01:48:00,50.2,38.5,29.91,ENE,67,0.0,-999.0,64,-99.99,,,0.00,Acu-Link.com,2013-10-03 05:48:00,
2013-10-03 02:05:00,50.4,37.9,29.92,ENE,67,1.1,-999.0,62,-99.99,,,0.00,Acu-Link.com,2013-10-03 06:05:00,
2013-10-03 02:20:00,49.8,37.7,29.91,East,90,0.0,-999.0,63,-99.99,,,0.00,Acu-Link.com,2013-10-03 06:20:00,
2013-10-03 02:35:00,49.1,37.8,29.94,ENE,67,0.0,-999.0,65,-99.99,,,0.00,Acu-Link.com,2013-10-03 06:35:00,
2013-10-03 02:50:00,48.7,37.9,29.92,ESE,112,0.0,-999.0,66,-99.99,,,0.00,Acu-Link.com,2013-10-03 06:50:00,
2013-10-03 03:05:00,48.6,37.8,29.92,NE,45,0.0,-999.0,66,-99.99,,,0.00,Acu-Link.com,2013-10-03 07:05:00,
2013-10-03 03:20:00,47.7,37.3,29.93,ENE,67,0.0,-999.0,67,-99.99,,,0.00,Acu-Link.com,2013-10-03 07:20:00,
2013-10-03 03:36:00,47.3,37.7,29.93,ENE,67,0.0,-999.0,69,-99.99,,,0.00,Acu-Link.com,2013-10-03 07:36:00,
2013-10-03 03:51:00,46.8,37.2,29.94,ENE,67,0.0,-999.0,69,-99.99,,,0.00,Acu-Link.com,2013-10-03 07:51:00,
2013-10-03 04:08:00,46.6,37.0,29.94,NE,45,0.0,-999.0,69,-99.99,,,0.00,Acu-Link.com,2013-10-03 08:08:00,
2013-10-03 04:23:00,46.4,36.8,29.94,NE,45,0.0,-999.0,69,-99.99,,,0.00,Acu-Link.com,2013-10-03 08:23:00,
2013-10-03 04:40:00,45.7,36.8,29.94,NNE,22,0.0,-999.0,71,-99.99,,,0.00,Acu-Link.com,2013-10-03 08:40:00,
2013-10-03 04:55:00,45.3,37.2,29.95,NE,45,0.0,-999.0,73,-99.99,,,0.00,Acu-Link.com,2013-10-03 08:55:00,
2013-10-03 05:10:00,44.4,36.6,29.95,ENE,67,0.0,-999.0,74,-99.99,,,0.00,Acu-Link.com,2013-10-03 09:10:00,
2013-10-03 05:25:00,43.0,35.6,29.96,NE,45,0.0,-999.0,75,-99.99,,,0.00,Acu-Link.com,2013-10-03 09:25:00,
2013-10-03 05:40:00,40.5,37.2,29.97,NNW,337,0.0,-999.0,88,-99.99,,,0.00,Acu-Link.com,2013-10-03 09:40:00,
2013-10-03 05:56:00,39.7,36.4,29.98,NNW,337,0.0,-999.0,88,-99.99,,,0.00,Acu-Link.com,2013-10-03 09:56:00,
2013-10-03 06:11:00,39.4,36.1,29.99,WNW,292,0.0,-999.0,88,-99.99,,,0.00,Acu-Link.com,2013-10-03 10:11:00,
2013-10-03 06:26:00,39.4,36.4,29.99,NNW,337,1.1,-999.0,89,-99.99,,,0.00,Acu-Link.com,2013-10-03 10:26:00,
2013-10-03 06:41:00,39.2,36.2,30.00,NNE,22,0.0,-999.0,89,-99.99,,,0.00,Acu-Link.com,2013-10-03 10:41:00,
2013-10-03 06:57:00,39.2,36.2,30.01,WNW,292,0.0,-999.0,89,-99.99,,,0.00,Acu-Link.com,2013-10-03 10:57:00,
2013-10-03 07:12:00,39.4,36.4,30.02,West,270,1.1,-999.0,89,-99.99,,,0.00,Acu-Link.com,2013-10-03 11:12:00,
2013-10-03 07:27:00,39.9,36.9,30.02,NE,45,2.2,-999.0,89,-99.99,,,0.00,Acu-Link.com,2013-10-03 11:27:00,
2013-10-03 07:42:00,43.0,40.0,30.02,ENE,67,0.0,-999.0,89,-99.99,,,0.00,Acu-Link.com,2013-10-03 11:42:00,
2013-10-03 07:58:00,44.1,41.1,30.03,ESE,112,0.0,-999.0,89,-99.99,,,0.00,Acu-Link.com,2013-10-03 11:58:00,
2013-10-03 08:13:00,45.0,42.0,30.02,WSW,247,0.0,-999.0,89,-99.99,,,0.00,Acu-Link.com,2013-10-03 12:13:00,
2013-10-03 08:28:00,47.5,43.5,30.03,NE,45,0.0,-999.0,86,-99.99,,,0.00,Acu-Link.com,2013-10-03 12:28:00,
2013-10-03 08:43:00,49.1,44.2,30.03,WSW,247,1.1,-999.0,83,-99.99,,,0.00,Acu-Link.com,2013-10-03 12:43:00,
2013-10-03 08:59:00,51.4,44.1,30.03,ESE,112,2.2,-999.0,76,-99.99,,,0.00,Acu-Link.com,2013-10-03 12:59:00,
2013-10-03 09:14:00,54.5,43.4,30.03,WSW,247,4.2,-999.0,66,-99.99,,,0.00,Acu-Link.com,2013-10-03 13:14:00,
2013-10-03 09:29:00,55.0,43.0,30.04,WSW,247,5.8,-999.0,64,-99.99,,,0.00,Acu-Link.com,2013-10-03 13:29:00,
2013-10-03 09:44:00,56.8,43.5,30.04,SW,225,3.2,-999.0,61,-99.99,,,0.00,Acu-Link.com,2013-10-03 13:44:00,
2013-10-03 09:59:00,57.7,43.0,30.03,WSW,247,5.3,-999.0,58,-99.99,,,0.00,Acu-Link.com,2013-10-03 13:59:00,
2013-10-03 10:15:00,60.6,43.4,30.03,SW,225,5.8,-999.0,53,-99.99,,,0.00,Acu-Link.com,2013-10-03 14:15:00,
2013-10-03 10:30:00,59.9,42.7,30.03,WNW,292,5.8,-999.0,53,-99.99,,,0.00,Acu-Link.com,2013-10-03 14:30:00,
2013-10-03 10:45:00,60.4,41.7,30.03,West,270,10.4,-999.0,50,-99.99,,,0.00,Acu-Link.com,2013-10-03 14:45:00,
2013-10-03 11:00:00,60.8,40.4,30.03,SW,225,5.8,-999.0,47,-99.99,,,0.00,Acu-Link.com,2013-10-03 15:00:00,
2013-10-03 11:15:00,62.6,40.4,30.03,SW,225,7.3,-999.0,44,-99.99,,,0.00,Acu-Link.com,2013-10-03 15:15:00,
2013-10-03 11:31:00,61.7,39.6,30.02,South,180,11.4,-999.0,44,-99.99,,,0.00,Acu-Link.com,2013-10-03 15:31:00,
2013-10-03 11:47:00,62.8,40.6,30.02,West,270,6.8,-999.0,44,-99.99,,,0.00,Acu-Link.com,2013-10-03 15:47:00,
2013-10-03 12:02:00,62.4,40.2,30.03,WSW,247,4.2,-999.0,44,-99.99,,,0.00,Acu-Link.com,2013-10-03 16:02:00,
2013-10-03 12:17:00,62.6,41.0,30.01,SW,225,5.3,-999.0,45,-99.99,,,0.00,Acu-Link.com,2013-10-03 16:17:00,
2013-10-03 12:32:00,62.6,41.0,30.00,WSW,247,11.4,-999.0,45,-99.99,,,0.00,Acu-Link.com,2013-10-03 16:32:00,
2013-10-03 12:48:00,63.7,40.2,30.01,WNW,292,12.5,-999.0,42,-99.99,,,0.00,Acu-Link.com,2013-10-03 16:48:00,
2013-10-03 13:03:00,64.0,39.2,30.01,WSW,247,8.3,-999.0,40,-99.99,,,0.00,Acu-Link.com,2013-10-03 17:03:00,
2013-10-03 13:18:00,64.0,37.9,30.00,WNW,292,11.4,-999.0,38,-99.99,,,0.00,Acu-Link.com,2013-10-03 17:18:00,
2013-10-03 13:33:00,64.0,39.2,30.00,SW,225,8.3,-999.0,40,-99.99,,,0.00,Acu-Link.com,2013-10-03 17:33:00,
2013-10-03 13:48:00,64.6,39.7,29.99,West,270,11.4,-999.0,40,-99.99,,,0.00,Acu-Link.com,2013-10-03 17:48:00,
2013-10-03 14:04:00,64.6,38.4,30.00,SW,225,9.4,-999.0,38,-99.99,,,0.00,Acu-Link.com,2013-10-03 18:04:00,
2013-10-03 14:27:00,64.4,38.2,29.99,SW,225,6.8,-999.0,38,-99.99,,,0.00,Acu-Link.com,2013-10-03 18:27:00,
2013-10-03 14:42:00,65.1,38.9,30.00,SW,225,4.7,-999.0,38,-99.99,,,0.00,Acu-Link.com,2013-10-03 18:42:00,
2013-10-03 14:58:00,64.9,39.3,29.98,SSW,202,4.7,-999.0,39,-99.99,,,0.00,Acu-Link.com,2013-10-03 18:58:00,
2013-10-03 15:13:00,65.3,40.4,29.99,West,270,7.8,-999.0,40,-99.99,,,0.00,Acu-Link.com,2013-10-03 19:13:00,
2013-10-03 15:28:00,65.1,40.2,29.99,West,270,10.4,-999.0,40,-99.99,,,0.00,Acu-Link.com,2013-10-03 19:28:00,
2013-10-03 15:43:00,65.1,40.2,29.98,West,270,8.3,-999.0,40,-99.99,,,0.00,Acu-Link.com,2013-10-03 19:43:00,
2013-10-03 15:59:00,66.0,40.3,29.99,SW,225,4.7,-999.0,39,-99.99,,,0.00,Acu-Link.com,2013-10-03 19:59:00,
2013-10-03 16:14:00,65.8,40.8,29.99,West,270,9.4,-999.0,40,-99.99,,,0.00,Acu-Link.com,2013-10-03 20:14:00,
2013-10-03 16:29:00,66.0,40.3,29.98,WSW,247,4.7,-999.0,39,-99.99,,,0.00,Acu-Link.com,2013-10-03 20:29:00,
2013-10-03 16:44:00,64.9,39.3,29.98,SW,225,12.5,-999.0,39,-99.99,,,0.00,Acu-Link.com,2013-10-03 20:44:00,
2013-10-03 17:00:00,64.2,39.4,29.98,SW,225,8.9,-999.0,40,-99.99,,,0.00,Acu-Link.com,2013-10-03 21:00:00,
2013-10-03 17:15:00,64.0,40.4,29.98,West,270,4.2,-999.0,42,-99.99,,,0.00,Acu-Link.com,2013-10-03 21:15:00,
2013-10-03 17:30:00,62.8,40.6,29.98,SW,225,4.2,-999.0,44,-99.99,,,0.00,Acu-Link.com,2013-10-03 21:30:00,
2013-10-03 17:46:00,61.7,39.6,29.98,SW,225,1.1,-999.0,44,-99.99,,,0.00,Acu-Link.com,2013-10-03 21:46:00,
2013-10-03 18:01:00,60.1,40.9,29.98,WSW,247,1.7,-999.0,49,-99.99,,,0.00,Acu-Link.com,2013-10-03 22:01:00,
2013-10-03 18:16:00,57.9,40.9,29.98,West,270,2.2,-999.0,53,-99.99,,,0.00,Acu-Link.com,2013-10-03 22:16:00,
2013-10-03 18:31:00,55.9,41.8,29.99,NW,315,0.0,-999.0,59,-99.99,,,0.00,Acu-Link.com,2013-10-03 22:31:00,
2013-10-03 18:49:00,54.1,41.4,29.99,NE,45,0.0,-999.0,62,-99.99,,,0.00,Acu-Link.com,2013-10-03 22:49:00,
2013-10-03 19:04:00,52.2,40.8,30.00,NNE,22,0.0,-999.0,65,-99.99,,,0.00,Acu-Link.com,2013-10-03 23:04:00,
2013-10-03 19:19:00,51.1,40.5,30.00,NE,45,0.0,-999.0,67,-99.99,,,0.00,Acu-Link.com,2013-10-03 23:19:00,
2013-10-03 19:34:00,50.2,40.1,30.00,NW,315,0.0,-999.0,68,-99.99,,,0.00,Acu-Link.com,2013-10-03 23:34:00,
2013-10-03 19:50:00,49.3,39.9,30.01,NW,315,0.0,-999.0,70,-99.99,,,0.00,Acu-Link.com,2013-10-03 23:50:00,
2013-10-03 20:05:00,48.4,39.4,30.01,North,0,0.0,-999.0,71,-99.99,,,0.00,Acu-Link.com,2013-10-04 00:05:00,
2013-10-03 20:20:00,47.5,39.3,30.02,NE,45,0.0,-999.0,73,-99.99,,,0.00,Acu-Link.com,2013-10-04 00:20:00,
2013-10-03 20:35:00,46.6,38.8,30.02,NW,315,0.0,-999.0,74,-99.99,,,0.00,Acu-Link.com,2013-10-04 00:35:00,
2013-10-03 20:50:00,46.0,38.5,30.02,NW,315,0.0,-999.0,75,-99.99,,,0.00,Acu-Link.com,2013-10-04 00:50:00,
2013-10-03 21:06:00,45.3,37.9,30.03,NW,315,0.0,-999.0,75,-99.99,,,0.00,Acu-Link.com,2013-10-04 01:06:00,
2013-10-03 21:21:00,44.8,38.0,30.03,North,0,1.7,-999.0,77,-99.99,,,0.00,Acu-Link.com,2013-10-04 01:21:00,
2013-10-03 21:36:00,44.6,37.8,30.03,West,270,0.0,-999.0,77,-99.99,,,0.00,Acu-Link.com,2013-10-04 01:36:00,
2013-10-03 21:51:00,43.9,37.5,30.03,North,0,0.0,-999.0,78,-99.99,,,0.00,Acu-Link.com,2013-10-04 01:51:00,
2013-10-03 22:06:00,43.2,37.1,30.02,NNW,337,0.0,-999.0,79,-99.99,,,0.00,Acu-Link.com,2013-10-04 02:06:00,
2013-10-03 22:22:00,42.8,37.4,30.02,NNE,22,0.0,-999.0,81,-99.99,,,0.00,Acu-Link.com,2013-10-04 02:22:00,
2013-10-03 22:37:00,42.3,36.9,30.02,North,0,0.0,-999.0,81,-99.99,,,0.00,Acu-Link.com,2013-10-04 02:37:00,
2013-10-03 22:52:00,42.4,37.9,30.02,North,0,0.0,-999.0,84,-99.99,,,0.00,Acu-Link.com,2013-10-04 02:52:00,
2013-10-03 23:07:00,42.1,37.6,30.03,SW,225,0.0,-999.0,84,-99.99,,,0.00,Acu-Link.com,2013-10-04 03:07:00,
2013-10-03 23:23:00,41.5,37.0,30.03,NE,45,0.0,-999.0,84,-99.99,,,0.00,Acu-Link.com,2013-10-04 03:23:00,
2013-10-03 23:38:00,41.4,37.5,30.03,North,0,0.0,-999.0,86,-99.99,,,0.00,Acu-Link.com,2013-10-04 03:38:00,
2013-10-03 23:53:00,41.2,37.6,30.02,North,0,0.0,-999.0,87,-99.99,,,0.00,Acu-Link.com,2013-10-04 03:53:00,